Time;durP1;ratioP1;P1;durP2;ratioP2;P2;SDS_P1;SDS_P2;PMS_P1;PMS_P2;Temp;Humidity;BMP_temperature;BMP_pressure;BME280_temperature;BME280_humidity;BME280_pressure;Samples;Min_cycle;Max_cycle;Signal;HPM_P1;HPM_P2
2023/06/19 00:00:00;;;;;;;;;;;21.60;99.90;;;;;;5033684;28;19925;-69
2023/06/19 00:02:27;;;;;;;;;;;21.50;99.90;;;;;;5048950;28;19929;-69
2023/06/19 00:04:54;;;;;;;;;;;21.50;99.90;;;;;;5050322;28;19936;-69
2023/06/19 00:07:21;;;;;;;;;;;21.50;99.90;;;;;;5033823;28;19929;-69
2023/06/19 00:09:48;;;;;;;;;;;21.50;99.90;;;;;;5033852;28;19925;-69
2023/06/19 00:12:15;;;;;;;;;;;21.40;99.90;;;;;;5034577;28;19932;-69
2023/06/19 00:14:42;;;;;;;;;;;21.40;99.90;;;;;;5033965;28;19925;-69
2023/06/19 00:17:10;;;;;;;;;;;21.40;99.90;;;;;;5046641;28;20013;-69
2023/06/19 00:19:37;;;;;;;;;;;21.40;99.90;;;;;;5033520;28;19932;-69
2023/06/19 00:22:04;;;;;;;;;;;21.30;99.90;;;;;;5032860;28;19948;-69
2023/06/19 00:24:31;;;;;;;;;;;21.30;99.90;;;;;;5043783;28;19975;-69
2023/06/19 00:27:02;;;;;;;;;;;21.40;99.90;;;;;;5035855;28;19925;-69
2023/06/19 00:29:28;;;;;;;;;;;21.40;99.90;;;;;;5033297;28;19929;-69
2023/06/19 00:31:57;;;;;;;;;;;21.30;99.90;;;;;;5036183;28;20308;-69
2023/06/19 00:34:25;;;;;;;;;;;21.30;99.90;;;;;;5033311;28;19925;-69
2023/06/19 00:36:55;;;;;;;;;;;21.30;99.90;;;;;;5033801;28;19952;-69
2023/06/19 00:39:22;;;;;;;;;;;21.30;99.90;;;;;;5036531;28;19925;-69
2023/06/19 00:41:50;;;;;;;;;;;21.30;99.90;;;;;;5036570;28;19934;-69
2023/06/19 00:44:17;;;;;;;;;;;21.30;99.90;;;;;;5033146;28;19929;-69
2023/06/19 00:46:43;;;;;;;;;;;21.30;99.90;;;;;;5033392;28;19925;-69
2023/06/19 00:49:10;;;;;;;;;;;21.40;99.90;;;;;;5038943;28;19932;-69
2023/06/19 00:51:39;;;;;;;;;;;21.40;99.90;;;;;;5042801;28;19933;-69
2023/06/19 00:54:06;;;;;;;;;;;21.40;99.90;;;;;;5036991;28;19932;-69
2023/06/19 00:56:34;;;;;;;;;;;21.40;99.90;;;;;;5036572;28;19925;-69
2023/06/19 00:59:01;;;;;;;;;;;21.40;99.90;;;;;;5032631;28;20024;-69
2023/06/19 01:01:28;;;;;;;;;;;21.30;99.90;;;;;;5032980;28;19929;-69
2023/06/19 01:03:56;;;;;;;;;;;21.30;99.90;;;;;;5033960;28;19952;-69
2023/06/19 01:06:25;;;;;;;;;;;21.40;99.90;;;;;;5034879;28;19932;-69
2023/06/19 01:08:57;;;;;;;;;;;21.40;99.90;;;;;;5033039;28;19932;-69
2023/06/19 01:11:40;;;;;;;;;;;21.40;99.90;;;;;;5035421;28;19925;-69
2023/06/19 01:14:16;;;;;;;;;;;21.30;99.90;;;;;;5036450;28;19929;-69
2023/06/19 01:16:44;;;;;;;;;;;21.30;99.90;;;;;;5045813;28;20316;-69
2023/06/19 01:19:11;;;;;;;;;;;21.30;99.90;;;;;;5032789;28;19925;-69
2023/06/19 01:21:40;;;;;;;;;;;21.30;99.90;;;;;;5045243;28;19925;-69
2023/06/19 01:24:08;;;;;;;;;;;21.30;99.90;;;;;;5028161;28;19925;-69
2023/06/19 01:26:35;;;;;;;;;;;21.30;99.90;;;;;;5050511;28;19948;-69
2023/06/19 01:29:04;;;;;;;;;;;21.30;99.90;;;;;;5033078;28;19933;-69
2023/06/19 01:31:32;;;;;;;;;;;21.30;99.90;;;;;;5053175;28;19968;-69
2023/06/19 01:34:00;;;;;;;;;;;21.30;99.90;;;;;;5035679;28;19925;-69
2023/06/19 01:36:27;;;;;;;;;;;21.50;99.90;;;;;;5031693;28;19925;-69
2023/06/19 01:38:56;;;;;;;;;;;21.60;99.90;;;;;;5030024;28;19926;-69
2023/06/19 01:41:25;;;;;;;;;;;21.50;99.90;;;;;;5031548;28;20106;-69
2023/06/19 01:43:52;;;;;;;;;;;21.60;99.90;;;;;;5035370;28;19967;-69
2023/06/19 01:46:19;;;;;;;;;;;21.60;99.90;;;;;;5034995;28;19929;-69
2023/06/19 01:48:46;;;;;;;;;;;21.50;99.90;;;;;;5033122;28;20316;-69
2023/06/19 01:51:13;;;;;;;;;;;21.50;99.90;;;;;;5032538;28;19932;-69
2023/06/19 01:53:40;;;;;;;;;;;21.50;99.90;;;;;;5031405;28;19925;-69
2023/06/19 01:56:07;;;;;;;;;;;21.40;99.90;;;;;;5032528;28;19932;-69
2023/06/19 01:58:35;;;;;;;;;;;21.50;99.90;;;;;;5032152;28;19925;-69
2023/06/19 02:01:02;;;;;;;;;;;21.60;99.90;;;;;;5032336;28;19932;-69
2023/06/19 02:03:29;;;;;;;;;;;21.60;99.90;;;;;;5030286;28;20416;-69
2023/06/19 02:05:56;;;;;;;;;;;21.60;99.90;;;;;;5030748;28;20012;-69
2023/06/19 02:08:23;;;;;;;;;;;21.60;99.90;;;;;;5030231;28;19925;-69
2023/06/19 02:10:50;;;;;;;;;;;21.60;99.90;;;;;;5035122;28;20323;-69
2023/06/19 02:13:16;;;;;;;;;;;21.70;99.90;;;;;;5031951;28;19925;-69
2023/06/19 02:15:45;;;;;;;;;;;21.80;99.90;;;;;;5030363;28;19932;-69
2023/06/19 02:18:11;;;;;;;;;;;21.70;99.90;;;;;;5031488;28;19925;-69
2023/06/19 02:20:38;;;;;;;;;;;21.70;99.90;;;;;;5044279;28;19925;-69
2023/06/19 02:23:05;;;;;;;;;;;21.60;99.90;;;;;;5030711;28;19961;-69
2023/06/19 02:25:33;;;;;;;;;;;21.60;99.90;;;;;;5032801;28;19933;-69
2023/06/19 02:28:00;;;;;;;;;;;21.50;99.90;;;;;;5032571;28;19931;-69
2023/06/19 02:30:27;;;;;;;;;;;21.50;99.90;;;;;;5029799;28;19932;-69
2023/06/19 02:32:55;;;;;;;;;;;21.40;99.90;;;;;;5032865;28;19932;-69
2023/06/19 02:35:21;;;;;;;;;;;21.30;99.90;;;;;;5030744;28;19932;-69
2023/06/19 02:37:48;;;;;;;;;;;21.20;99.90;;;;;;5033068;28;20537;-69
2023/06/19 02:40:17;;;;;;;;;;;21.20;99.90;;;;;;5013302;28;21952;-69
2023/06/19 02:42:44;;;;;;;;;;;21.10;99.90;;;;;;5032013;28;20274;-69
2023/06/19 02:45:11;;;;;;;;;;;21.00;99.90;;;;;;5032569;28;19924;-69
2023/06/19 02:47:37;;;;;;;;;;;20.90;99.90;;;;;;5036227;28;19929;-69
2023/06/19 02:50:07;;;;;;;;;;;20.80;99.90;;;;;;5026645;28;19925;-69
2023/06/19 02:52:36;;;;;;;;;;;20.70;99.90;;;;;;5030915;28;19924;-69
2023/06/19 02:55:03;;;;;;;;;;;20.60;99.90;;;;;;5030205;28;19933;-69
2023/06/19 02:57:30;;;;;;;;;;;20.60;99.90;;;;;;5031364;28;19925;-69
2023/06/19 02:59:56;;;;;;;;;;;20.40;99.90;;;;;;5032507;28;19979;-69
2023/06/19 03:02:23;;;;;;;;;;;20.30;99.90;;;;;;5033996;28;19928;-69
2023/06/19 03:04:50;;;;;;;;;;;20.20;99.90;;;;;;5027665;28;19931;-69
2023/06/19 03:07:19;;;;;;;;;;;20.20;99.90;;;;;;5030009;28;19925;-69
2023/06/19 03:09:46;;;;;;;;;;;20.10;99.90;;;;;;5026187;28;20479;-69
2023/06/19 03:12:13;;;;;;;;;;;20.10;99.90;;;;;;5034575;28;20348;-69
2023/06/19 03:14:39;;;;;;;;;;;20.00;99.90;;;;;;5026017;28;19936;-69
2023/06/19 03:17:07;;;;;;;;;;;19.90;99.90;;;;;;5029344;28;20408;-69
2023/06/19 03:19:34;;;;;;;;;;;19.90;99.90;;;;;;5049584;28;19925;-69
2023/06/19 03:22:01;;;;;;;;;;;19.80;99.90;;;;;;5025383;28;19932;-69
2023/06/19 03:24:29;;;;;;;;;;;19.70;99.90;;;;;;5030936;28;19944;-69
2023/06/19 03:27:08;;;;;;;;;;;19.80;99.90;;;;;;5030797;28;19960;-69
2023/06/19 03:29:35;;;;;;;;;;;19.70;99.90;;;;;;5034856;28;20386;-69
2023/06/19 03:32:06;;;;;;;;;;;19.80;99.90;;;;;;5025424;28;19936;-69
2023/06/19 03:34:34;;;;;;;;;;;19.80;99.90;;;;;;5032854;28;20020;-69
2023/06/19 03:37:06;;;;;;;;;;;19.80;99.90;;;;;;5029111;28;19925;-69
2023/06/19 03:39:35;;;;;;;;;;;19.80;99.90;;;;;;5031632;28;19932;-69
2023/06/19 03:42:07;;;;;;;;;;;19.80;99.90;;;;;;5031885;28;20388;-69
2023/06/19 03:44:34;;;;;;;;;;;19.80;99.90;;;;;;5032753;28;19975;-69
2023/06/19 03:47:01;;;;;;;;;;;19.90;99.90;;;;;;5035546;28;19925;-69
2023/06/19 03:49:29;;;;;;;;;;;19.90;99.90;;;;;;5029411;28;20296;-70
2023/06/19 03:51:55;;;;;;;;;;;20.00;99.90;;;;;;5032937;28;19933;-70
2023/06/19 03:54:22;;;;;;;;;;;20.00;99.90;;;;;;5032747;28;20331;-69
2023/06/19 03:56:51;;;;;;;;;;;20.00;99.90;;;;;;5030704;28;19925;-69
2023/06/19 03:59:17;;;;;;;;;;;20.10;99.90;;;;;;5032111;28;19932;-69
2023/06/19 04:01:44;;;;;;;;;;;20.10;99.90;;;;;;5029965;28;20411;-69
2023/06/19 04:04:11;;;;;;;;;;;20.10;99.90;;;;;;5042145;28;19932;-70
2023/06/19 04:06:38;;;;;;;;;;;20.00;99.90;;;;;;5041317;28;19925;-70
2023/06/19 04:09:06;;;;;;;;;;;20.10;99.90;;;;;;5032874;28;19987;-70
2023/06/19 04:11:33;;;;;;;;;;;20.00;99.90;;;;;;5032543;28;19932;-70
2023/06/19 04:14:03;;;;;;;;;;;20.00;99.90;;;;;;5028566;28;19926;-71
2023/06/19 04:16:30;;;;;;;;;;;20.00;99.90;;;;;;5031606;28;19929;-70
2023/06/19 04:18:57;;;;;;;;;;;19.80;99.90;;;;;;5031476;28;19925;-70
2023/06/19 04:21:24;;;;;;;;;;;19.80;99.90;;;;;;5032943;28;20414;-69
2023/06/19 04:23:51;;;;;;;;;;;19.80;99.90;;;;;;5028097;28;19944;-73
2023/06/19 04:26:18;;;;;;;;;;;19.80;99.90;;;;;;5045755;28;20422;-70
2023/06/19 04:28:45;;;;;;;;;;;19.90;99.90;;;;;;5032079;28;19971;-69
2023/06/19 04:31:17;;;;;;;;;;;19.80;99.90;;;;;;5048523;28;20285;-70
2023/06/19 04:33:44;;;;;;;;;;;19.80;99.90;;;;;;5032125;28;19925;-69
2023/06/19 04:36:11;;;;;;;;;;;19.80;99.90;;;;;;5034994;28;20071;-70
2023/06/19 04:38:38;;;;;;;;;;;19.80;99.90;;;;;;5032619;28;20453;-70
2023/06/19 04:41:05;;;;;;;;;;;19.80;99.90;;;;;;5031322;28;20377;-71
2023/06/19 04:43:33;;;;;;;;;;;19.70;99.90;;;;;;5031543;28;19925;-71
2023/06/19 04:46:00;;;;;;;;;;;19.80;99.90;;;;;;5035014;28;20312;-72
2023/06/19 04:48:29;;;;;;;;;;;19.80;99.90;;;;;;5034004;28;19929;-70
2023/06/19 04:50:57;;;;;;;;;;;19.80;99.90;;;;;;5028282;28;20467;-70
2023/06/19 04:53:23;;;;;;;;;;;19.80;99.90;;;;;;5031627;28;19929;-72
2023/06/19 04:55:51;;;;;;;;;;;19.80;99.90;;;;;;5031747;28;19925;-69
2023/06/19 04:58:18;;;;;;;;;;;19.70;99.90;;;;;;5031741;28;19925;-68
2023/06/19 05:00:45;;;;;;;;;;;19.80;99.90;;;;;;5031416;28;20297;-69
2023/06/19 05:03:13;;;;;;;;;;;19.90;99.90;;;;;;5042729;28;19925;-71
2023/06/19 05:05:42;;;;;;;;;;;20.00;99.90;;;;;;5035703;28;20420;-70
2023/06/19 05:08:08;;;;;;;;;;;20.00;99.90;;;;;;5034179;28;19929;-70
2023/06/19 05:10:35;;;;;;;;;;;20.00;99.90;;;;;;5048013;28;19925;-70
2023/06/19 05:13:03;;;;;;;;;;;20.10;99.90;;;;;;5031151;28;20079;-70
2023/06/19 05:15:29;;;;;;;;;;;20.20;99.90;;;;;;5028277;28;19932;-70
2023/06/19 05:17:56;;;;;;;;;;;20.30;99.90;;;;;;5031376;28;19968;-71
2023/06/19 05:20:23;;;;;;;;;;;20.40;99.90;;;;;;5031380;28;19925;-70
2023/06/19 05:22:51;;;;;;;;;;;20.40;99.90;;;;;;5030781;28;19925;-70
2023/06/19 05:25:18;;;;;;;;;;;20.40;99.90;;;;;;5030954;28;19979;-70
2023/06/19 05:27:45;;;;;;;;;;;20.50;99.90;;;;;;5030771;28;20327;-70
2023/06/19 05:30:12;;;;;;;;;;;20.50;99.90;;;;;;5031408;28;19929;-70
2023/06/19 05:32:39;;;;;;;;;;;20.50;99.90;;;;;;5047262;28;20359;-70
2023/06/19 05:35:06;;;;;;;;;;;20.50;99.90;;;;;;5030726;28;20313;-70
2023/06/19 05:37:32;;;;;;;;;;;20.50;99.90;;;;;;5030654;28;19932;-71
2023/06/19 05:40:00;;;;;;;;;;;20.60;99.90;;;;;;5032136;28;20030;-70
2023/06/19 05:42:27;;;;;;;;;;;20.50;99.90;;;;;;5027776;28;19925;-70
2023/06/19 05:44:54;;;;;;;;;;;20.60;99.90;;;;;;5030730;28;19925;-70
2023/06/19 05:47:21;;;;;;;;;;;20.70;99.90;;;;;;5032956;28;19925;-70
2023/06/19 05:49:48;;;;;;;;;;;20.70;99.90;;;;;;5030827;28;19929;-70
2023/06/19 05:52:15;;;;;;;;;;;20.90;99.90;;;;;;5030529;28;19925;-70
2023/06/19 05:54:42;;;;;;;;;;;21.00;99.90;;;;;;5034608;28;20339;-70
2023/06/19 05:57:11;;;;;;;;;;;21.00;99.90;;;;;;5031226;28;19925;-71
2023/06/19 05:59:38;;;;;;;;;;;21.00;99.90;;;;;;5029848;28;19931;-70
2023/06/19 06:02:06;;;;;;;;;;;21.20;99.90;;;;;;5033479;28;19937;-70
2023/06/19 06:04:32;;;;;;;;;;;21.30;99.90;;;;;;5030951;28;20339;-70
2023/06/19 06:06:59;;;;;;;;;;;21.20;99.90;;;;;;5026309;28;20027;-70
2023/06/19 06:09:26;;;;;;;;;;;21.30;99.90;;;;;;5031251;28;19972;-70
2023/06/19 06:11:53;;;;;;;;;;;21.30;99.90;;;;;;5033655;28;19925;-70
2023/06/19 06:14:21;;;;;;;;;;;21.20;99.90;;;;;;5030064;28;19929;-70
2023/06/19 06:16:48;;;;;;;;;;;21.20;99.90;;;;;;5046925;28;19929;-70
2023/06/19 06:19:15;;;;;;;;;;;21.30;99.90;;;;;;5034516;28;19974;-70
2023/06/19 06:21:42;;;;;;;;;;;21.30;99.90;;;;;;5026723;28;19957;-70
2023/06/19 06:24:09;;;;;;;;;;;21.30;99.90;;;;;;5032564;28;19929;-70
2023/06/19 06:26:37;;;;;;;;;;;21.30;99.90;;;;;;5031481;28;20020;-70
2023/06/19 06:29:04;;;;;;;;;;;21.30;99.90;;;;;;5030148;28;19925;-70
2023/06/19 06:31:32;;;;;;;;;;;21.40;99.90;;;;;;5030589;28;20331;-70
2023/06/19 06:33:59;;;;;;;;;;;21.50;99.90;;;;;;5032748;28;20312;-70
2023/06/19 06:36:26;;;;;;;;;;;21.40;99.90;;;;;;5033294;28;19963;-70
2023/06/19 06:38:52;;;;;;;;;;;21.40;99.90;;;;;;5028303;28;20380;-70
2023/06/19 06:41:19;;;;;;;;;;;21.40;99.90;;;;;;5036842;28;19940;-70
2023/06/19 06:43:46;;;;;;;;;;;21.60;99.90;;;;;;5028188;28;20393;-71
2023/06/19 06:46:14;;;;;;;;;;;21.60;99.90;;;;;;5029378;28;19929;-70
2023/06/19 06:48:42;;;;;;;;;;;21.60;99.90;;;;;;5029400;28;19952;-70
2023/06/19 06:51:10;;;;;;;;;;;21.60;99.90;;;;;;5029877;28;19925;-71
2023/06/19 06:53:37;;;;;;;;;;;21.50;99.90;;;;;;5025161;28;20374;-70
2023/06/19 06:56:04;;;;;;;;;;;21.40;99.90;;;;;;5029469;28;19951;-70
2023/06/19 06:58:30;;;;;;;;;;;21.30;99.90;;;;;;5029442;28;19925;-70
2023/06/19 07:00:57;;;;;;;;;;;21.40;99.90;;;;;;5031243;28;19929;-70
2023/06/19 07:03:24;;;;;;;;;;;21.50;99.90;;;;;;5046198;28;19929;-70
2023/06/19 07:05:52;;;;;;;;;;;21.60;99.90;;;;;;5029360;28;19925;-70
2023/06/19 07:08:19;;;;;;;;;;;21.50;99.90;;;;;;5029628;28;19925;-70
2023/06/19 07:10:46;;;;;;;;;;;21.60;99.90;;;;;;5026721;28;19934;-70
2023/06/19 07:13:12;;;;;;;;;;;21.60;99.90;;;;;;5029196;28;20056;-70
2023/06/19 07:15:39;;;;;;;;;;;21.80;99.90;;;;;;5031661;28;19926;-70
2023/06/19 07:18:06;;;;;;;;;;;21.90;99.90;;;;;;5025971;28;19925;-70
2023/06/19 07:20:33;;;;;;;;;;;21.80;99.90;;;;;;5026992;28;19933;-70
2023/06/19 07:23:01;;;;;;;;;;;21.90;99.90;;;;;;5029178;28;20328;-70
2023/06/19 07:25:28;;;;;;;;;;;21.90;99.90;;;;;;5030257;28;19972;-70
2023/06/19 07:27:54;;;;;;;;;;;21.80;99.90;;;;;;5032562;28;19937;-69
2023/06/19 07:30:21;;;;;;;;;;;21.90;99.90;;;;;;5029638;28;19925;-70
2023/06/19 07:32:48;;;;;;;;;;;21.80;99.90;;;;;;5027880;28;19940;-70
2023/06/19 07:35:15;;;;;;;;;;;21.90;99.90;;;;;;5028752;28;19948;-70
2023/06/19 07:37:41;;;;;;;;;;;22.00;99.90;;;;;;5028971;28;20399;-70
2023/06/19 07:40:11;;;;;;;;;;;21.90;99.90;;;;;;5026066;28;19931;-70
2023/06/19 07:42:37;;;;;;;;;;;21.80;99.90;;;;;;5030038;28;20397;-70
2023/06/19 07:45:05;;;;;;;;;;;21.80;99.90;;;;;;5028784;28;19979;-69
2023/06/19 07:47:31;;;;;;;;;;;21.80;99.90;;;;;;5029348;28;19932;-70
2023/06/19 07:49:58;;;;;;;;;;;21.80;99.90;;;;;;5030302;28;19925;-69
2023/06/19 07:52:25;;;;;;;;;;;22.00;99.90;;;;;;5028960;28;19925;-70
2023/06/19 07:54:53;;;;;;;;;;;22.00;99.90;;;;;;5025991;28;19929;-69
2023/06/19 07:57:21;;;;;;;;;;;22.20;99.90;;;;;;5030907;28;19929;-70
2023/06/19 07:59:48;;;;;;;;;;;22.10;99.90;;;;;;5029660;28;19976;-70
2023/06/19 08:02:15;;;;;;;;;;;22.10;99.90;;;;;;5032603;28;19929;-70
2023/06/19 08:04:42;;;;;;;;;;;22.10;99.90;;;;;;5032634;28;19925;-70
2023/06/19 08:07:09;;;;;;;;;;;22.20;99.90;;;;;;5032421;28;20400;-70
2023/06/19 08:09:35;;;;;;;;;;;22.20;99.90;;;;;;5032601;28;19983;-70
2023/06/19 08:12:02;;;;;;;;;;;22.30;99.90;;;;;;5032584;28;19951;-70
2023/06/19 08:14:30;;;;;;;;;;;22.50;99.90;;;;;;5032692;28;20362;-69
2023/06/19 08:16:57;;;;;;;;;;;22.90;99.90;;;;;;5046810;28;19926;-70
2023/06/19 08:19:24;;;;;;;;;;;23.10;99.90;;;;;;5049029;28;19975;-70
2023/06/19 08:21:51;;;;;;;;;;;23.10;99.90;;;;;;5032356;28;20352;-70
2023/06/19 08:24:18;;;;;;;;;;;23.10;99.90;;;;;;5033899;28;19925;-70
2023/06/19 08:26:45;;;;;;;;;;;23.30;99.90;;;;;;5032331;28;19929;-70
2023/06/19 08:29:12;;;;;;;;;;;23.60;99.90;;;;;;5026441;28;20447;-70
2023/06/19 08:31:40;;;;;;;;;;;23.50;99.90;;;;;;5031753;28;20343;-70
2023/06/19 08:34:09;;;;;;;;;;;23.60;99.90;;;;;;5028901;28;19929;-70
2023/06/19 08:36:35;;;;;;;;;;;23.30;99.90;;;;;;5035426;28;19925;-69
2023/06/19 08:39:02;;;;;;;;;;;23.20;99.90;;;;;;5032112;28;19928;-70
2023/06/19 08:41:29;;;;;;;;;;;23.10;99.90;;;;;;5031267;28;20341;-70
2023/06/19 08:43:56;;;;;;;;;;;23.30;99.90;;;;;;5032187;28;19929;-70
2023/06/19 08:46:23;;;;;;;;;;;23.50;99.90;;;;;;5031681;28;19948;-70
2023/06/19 08:48:55;;;;;;;;;;;23.60;99.90;;;;;;5043318;28;19925;-70
2023/06/19 08:51:22;;;;;;;;;;;23.70;99.90;;;;;;5031688;28;19979;-70
2023/06/19 08:53:51;;;;;;;;;;;23.40;99.90;;;;;;5044273;28;20026;-70
2023/06/19 08:56:17;;;;;;;;;;;23.30;99.90;;;;;;5031845;28;19925;-70
2023/06/19 08:58:44;;;;;;;;;;;23.50;99.90;;;;;;5031598;28;19929;-70
2023/06/19 09:01:13;;;;;;;;;;;23.40;99.90;;;;;;5031940;28;19968;-70
2023/06/19 09:03:39;;;;;;;;;;;23.60;99.90;;;;;;5031497;28;19987;-70
2023/06/19 09:06:08;;;;;;;;;;;23.40;99.90;;;;;;5031590;28;19925;-70
2023/06/19 09:08:35;;;;;;;;;;;23.40;99.90;;;;;;5030786;28;19956;-70
2023/06/19 09:11:03;;;;;;;;;;;23.40;99.90;;;;;;5031524;28;19935;-70
2023/06/19 09:13:30;;;;;;;;;;;23.40;99.90;;;;;;5031352;28;19925;-70
2023/06/19 09:15:59;;;;;;;;;;;23.40;99.90;;;;;;5028172;28;20394;-69
2023/06/19 09:18:27;;;;;;;;;;;23.30;99.90;;;;;;5031236;28;19929;-70
2023/06/19 09:20:54;;;;;;;;;;;23.40;99.90;;;;;;5043686;28;19925;-70
2023/06/19 09:23:23;;;;;;;;;;;23.30;99.90;;;;;;5044358;28;19926;-70
2023/06/19 09:25:55;;;;;;;;;;;23.40;99.90;;;;;;5031009;28;19925;-69
2023/06/19 09:28:23;;;;;;;;;;;23.40;99.90;;;;;;5031818;28;19926;-70
2023/06/19 09:30:57;;;;;;;;;;;23.40;99.90;;;;;;5031038;28;19925;-70
2023/06/19 09:33:24;;;;;;;;;;;23.60;99.90;;;;;;5047698;28;19925;-69
2023/06/19 09:35:51;;;;;;;;;;;23.40;99.90;;;;;;5030863;28;19983;-70
2023/06/19 09:38:18;;;;;;;;;;;23.60;99.90;;;;;;5030982;28;19925;-70
2023/06/19 09:40:47;;;;;;;;;;;23.60;99.90;;;;;;5032304;28;19925;-70
2023/06/19 09:43:16;;;;;;;;;;;23.60;99.90;;;;;;5047228;28;20300;-70
2023/06/19 09:45:43;;;;;;;;;;;23.50;99.90;;;;;;5030671;28;19929;-70
2023/06/19 09:48:11;;;;;;;;;;;23.80;99.90;;;;;;5030638;28;19990;-70
2023/06/19 09:50:51;;;;;;;;;;;23.90;99.90;;;;;;5029596;28;20012;-69
2023/06/19 09:53:19;;;;;;;;;;;24.00;99.90;;;;;;5027907;28;19925;-70
2023/06/19 09:55:50;;;;;;;;;;;23.90;99.90;;;;;;5027849;28;19925;-70
2023/06/19 09:58:17;;;;;;;;;;;24.10;99.90;;;;;;5030648;28;19929;-70
2023/06/19 10:00:43;;;;;;;;;;;24.20;99.90;;;;;;5030457;28;20446;-70
2023/06/19 10:03:12;;;;;;;;;;;24.30;99.90;;;;;;5030383;28;19925;-70
2023/06/19 10:05:40;;;;;;;;;;;24.10;99.90;;;;;;5030125;28;19929;-70
2023/06/19 10:08:08;;;;;;;;;;;24.50;99.90;;;;;;5027768;28;19925;-70
2023/06/19 10:10:35;;;;;;;;;;;24.50;99.90;;;;;;5034125;28;19925;-70
2023/06/19 10:13:14;;;;;;;;;;;24.20;99.90;;;;;;5030354;28;20299;-70
2023/06/19 10:15:41;;;;;;;;;;;24.40;99.90;;;;;;5022865;28;20359;-70
2023/06/19 10:18:08;;;;;;;;;;;24.70;99.90;;;;;;5032642;28;19955;-69
2023/06/19 10:20:38;;;;;;;;;;;24.70;99.90;;;;;;5017059;28;19929;-70
2023/06/19 10:23:06;;;;;;;;;;;24.90;99.90;;;;;;5029248;28;19941;-69
2023/06/19 10:25:33;;;;;;;;;;;25.10;99.90;;;;;;5029691;28;19932;-69
2023/06/19 10:28:01;;;;;;;;;;;25.40;99.90;;;;;;5029953;28;20359;-69
2023/06/19 10:30:30;;;;;;;;;;;25.20;99.90;;;;;;5028745;28;20476;-69
2023/06/19 10:32:57;;;;;;;;;;;25.30;99.90;;;;;;5030111;28;20315;-70
2023/06/19 10:35:24;;;;;;;;;;;25.40;99.90;;;;;;5046245;28;19925;-69
2023/06/19 10:37:51;;;;;;;;;;;25.50;99.90;;;;;;5031826;28;20481;-69
2023/06/19 10:40:18;;;;;;;;;;;25.60;99.90;;;;;;5029328;28;19937;-70
2023/06/19 10:42:45;;;;;;;;;;;25.50;99.90;;;;;;5029679;28;20358;-69
2023/06/19 10:45:13;;;;;;;;;;;25.50;99.90;;;;;;5029295;28;19925;-71
2023/06/19 10:47:41;;;;;;;;;;;25.50;99.90;;;;;;5031278;28;19944;-70
2023/06/19 10:50:11;;;;;;;;;;;25.70;99.90;;;;;;5029085;28;19932;-69
2023/06/19 10:52:40;;;;;;;;;;;25.60;99.90;;;;;;5036668;28;19926;-70
2023/06/19 10:55:07;;;;;;;;;;;25.90;99.90;;;;;;5027024;28;19933;-70
2023/06/19 10:57:34;;;;;;;;;;;25.90;99.90;;;;;;5029134;28;19929;-70
2023/06/19 11:00:00;;;;;;;;;;;26.20;99.90;;;;;;5032787;28;20335;-70
2023/06/19 11:02:27;;;;;;;;;;;26.50;99.90;;;;;;5028962;28;19925;-70
2023/06/19 11:04:56;;;;;;;;;;;26.40;99.90;;;;;;5027171;28;19925;-70
2023/06/19 11:07:23;;;;;;;;;;;26.60;99.90;;;;;;5044756;28;20355;-70
2023/06/19 11:09:50;;;;;;;;;;;26.60;99.90;;;;;;5032747;28;19925;-70
2023/06/19 11:12:19;;;;;;;;;;;26.10;99.90;;;;;;5028757;28;19929;-70
2023/06/19 11:14:46;;;;;;;;;;;26.30;99.90;;;;;;5028597;28;20301;-69
2023/06/19 11:17:13;;;;;;;;;;;26.30;99.90;;;;;;5029843;28;19925;-70
2023/06/19 11:19:42;;;;;;;;;;;26.40;99.90;;;;;;5045860;28;19933;-69
2023/06/19 11:22:11;;;;;;;;;;;26.30;99.90;;;;;;5033926;28;19961;-69
2023/06/19 11:24:38;;;;;;;;;;;26.40;99.90;;;;;;5039173;28;19925;-69
2023/06/19 11:27:05;;;;;;;;;;;26.50;99.90;;;;;;5028401;28;19929;-69
2023/06/19 11:29:32;;;;;;;;;;;26.80;99.90;;;;;;5028824;28;19940;-70
2023/06/19 11:32:06;;;;;;;;;;;26.70;99.90;;;;;;5030380;28;19929;-69
2023/06/19 11:34:34;;;;;;;;;;;26.60;99.90;;;;;;5032798;28;20319;-70
2023/06/19 11:37:00;;;;;;;;;;;26.80;99.90;;;;;;5035490;28;20461;-69
2023/06/19 11:39:28;;;;;;;;;;;27.00;99.90;;;;;;5032658;28;19925;-69
2023/06/19 11:41:55;;;;;;;;;;;27.50;99.90;;;;;;5032784;28;19925;-70
2023/06/19 11:44:22;;;;;;;;;;;28.20;99.90;;;;;;5032582;28;20400;-69
2023/06/19 11:46:50;;;;;;;;;;;29.00;99.90;;;;;;5032689;28;19929;-69
2023/06/19 11:49:17;;;;;;;;;;;29.60;99.90;;;;;;5032758;28;20023;-69
2023/06/19 11:51:44;;;;;;;;;;;30.30;99.90;;;;;;5032803;28;19932;-69
2023/06/19 11:54:14;;;;;;;;;;;29.70;99.90;;;;;;5047067;28;19925;-69
2023/06/19 11:56:42;;;;;;;;;;;29.70;99.90;;;;;;5046957;28;19940;-69
2023/06/19 11:59:09;;;;;;;;;;;29.80;99.90;;;;;;5035133;28;19926;-69
2023/06/19 12:01:36;;;;;;;;;;;30.70;99.90;;;;;;5049479;28;19977;-70
2023/06/19 12:04:04;;;;;;;;;;;31.40;99.90;;;;;;5032854;28;20367;-70
2023/06/19 12:06:31;;;;;;;;;;;31.80;99.90;;;;;;5026763;28;20033;-70
2023/06/19 12:08:58;;;;;;;;;;;31.80;99.90;;;;;;5032598;28;19932;-70
2023/06/19 12:11:25;;;;;;;;;;;31.00;99.90;;;;;;5032686;28;20388;-70
2023/06/19 12:13:55;;;;;;;;;;;30.20;99.90;;;;;;5033862;28;19983;-69
2023/06/19 12:16:22;;;;;;;;;;;29.60;99.90;;;;;;5032208;28;19925;-70
2023/06/19 12:18:49;;;;;;;;;;;29.40;99.90;;;;;;5032568;28;19925;-69
2023/06/19 12:21:16;;;;;;;;;;;29.30;99.90;;;;;;5032399;28;19925;-70
2023/06/19 12:23:43;;;;;;;;;;;29.10;99.90;;;;;;5032397;28;19986;-69
2023/06/19 12:26:09;;;;;;;;;;;29.00;99.90;;;;;;5029592;28;20050;-71
2023/06/19 12:28:36;;;;;;;;;;;28.90;99.90;;;;;;5033059;28;19931;-70
2023/06/19 12:31:05;;;;;;;;;;;28.50;99.90;;;;;;5032402;28;19926;-70
2023/06/19 12:33:32;;;;;;;;;;;28.60;99.90;;;;;;5032063;28;19939;-69
2023/06/19 12:35:59;;;;;;;;;;;29.00;99.90;;;;;;5031720;28;19956;-70
2023/06/19 12:38:26;;;;;;;;;;;29.80;99.90;;;;;;5032127;28;19931;-69
2023/06/19 12:40:53;;;;;;;;;;;30.10;99.90;;;;;;5033173;28;20012;-69
2023/06/19 12:43:19;;;;;;;;;;;30.70;99.90;;;;;;5029549;28;19925;-69
2023/06/19 12:45:46;;;;;;;;;;;32.00;99.90;;;;;;5032031;28;19932;-70
2023/06/19 12:48:15;;;;;;;;;;;32.90;99.90;;;;;;5031700;28;19926;-67
2023/06/19 12:50:41;;;;;;;;;;;33.10;99.90;;;;;;5032215;28;20008;-69
2023/06/19 12:53:08;;;;;;;;;;;32.30;99.90;;;;;;5032362;28;19929;-69
2023/06/19 12:55:35;;;;;;;;;;;32.00;99.90;;;;;;5030054;28;19925;-69
2023/06/19 12:58:02;;;;;;;;;;;33.00;99.90;;;;;;5032567;28;20300;-69
2023/06/19 13:00:28;;;;;;;;;;;33.30;99.90;;;;;;5032699;28;20281;-69
2023/06/19 13:02:55;;;;;;;;;;;33.90;99.90;;;;;;5038916;28;19925;-69
2023/06/19 13:05:24;;;;;;;;;;;34.00;99.90;;;;;;5035116;28;20349;-70
2023/06/19 13:07:50;;;;;;;;;;;33.80;99.90;;;;;;5037332;28;20351;-69
2023/06/19 13:10:17;;;;;;;;;;;34.70;99.90;;;;;;5034272;28;19940;-69
2023/06/19 13:12:44;;;;;;;;;;;35.20;99.90;;;;;;5038893;28;19925;-69
2023/06/19 13:15:11;;;;;;;;;;;35.20;99.90;;;;;;5039614;28;19929;-69
2023/06/19 13:17:38;;;;;;;;;;;35.70;99.90;;;;;;5037970;28;20521;-69
2023/06/19 13:20:05;;;;;;;;;;;36.20;99.90;;;;;;5031617;28;19979;-69
2023/06/19 13:22:33;;;;;;;;;;;;;;;;;;5047499;28;19928;-81
2023/06/19 13:25:01;;;;;;;;;;;35.20;99.90;;;;;;5032184;28;19925;-70
2023/06/19 13:27:28;;;;;;;;;;;35.70;99.90;;;;;;5036588;28;19936;-69
2023/06/19 13:29:55;;;;;;;;;;;35.20;99.90;;;;;;5031671;28;19932;-70
2023/06/19 13:32:22;;;;;;;;;;;34.20;99.90;;;;;;5040317;28;19932;-68
2023/06/19 13:34:49;;;;;;;;;;;34.40;99.90;;;;;;5033144;28;20392;-69
2023/06/19 13:37:16;;;;;;;;;;;34.40;99.90;;;;;;5032411;28;19925;-68
2023/06/19 13:39:42;;;;;;;;;;;35.00;99.90;;;;;;5038985;28;19925;-69
2023/06/19 13:42:11;;;;;;;;;;;34.50;99.90;;;;;;5033862;28;20372;-75
2023/06/19 13:44:37;;;;;;;;;;;33.50;99.90;;;;;;5044333;28;20389;-78
2023/06/19 13:47:04;;;;;;;;;;;34.50;99.90;;;;;;5027688;28;19972;-69
2023/06/19 13:49:31;;;;;;;;;;;35.60;99.90;;;;;;5042203;28;19931;-68
2023/06/19 13:51:58;;;;;;;;;;;34.90;99.90;;;;;;5047760;28;19929;-70
2023/06/19 13:54:25;;;;;;;;;;;35.70;99.90;;;;;;5030314;28;19933;-73
2023/06/19 13:56:52;;;;;;;;;;;36.70;99.90;;;;;;5038488;28;19925;-70
2023/06/19 13:59:20;;;;;;;;;;;37.50;99.90;;;;;;5038523;28;19976;-70
2023/06/19 14:01:47;;;;;;;;;;;36.80;99.90;;;;;;5040114;28;19932;-70
2023/06/19 14:04:13;;;;;;;;;;;35.60;99.90;;;;;;5038214;28;19933;-70
2023/06/19 14:06:42;;;;;;;;;;;35.50;99.90;;;;;;5037832;28;20012;-70
2023/06/19 14:09:09;;;;;;;;;;;34.60;99.90;;;;;;5044451;28;19959;-70
2023/06/19 14:11:36;;;;;;;;;;;34.10;99.90;;;;;;5042375;28;20364;-70
2023/06/19 14:14:02;;;;;;;;;;;34.00;99.90;;;;;;5053398;28;19925;-71
2023/06/19 14:16:31;;;;;;;;;;;33.50;99.90;;;;;;5038754;28;19968;-70
2023/06/19 14:18:57;;;;;;;;;;;32.70;99.90;;;;;;5035921;28;19932;-69